Time;durP1;ratioP1;P1;durP2;ratioP2;P2;SDS_P1;SDS_P2;PMS_P1;PMS_P2;Temp;Humidity;BMP_temperature;BMP_pressure;BME280_temperature;BME280_humidity;BME280_pressure;Samples;Min_cycle;Max_cycle;Signal;HPM_P1;HPM_P2
2023/08/24 00:00:33;;;;;;;9.50;5.40;;;;;;;19.31;82.76;101000.63;6167225;23;20049;-82
2023/08/24 00:03:06;;;;;;;13.85;5.30;;;;;;;19.21;83.02;100993.06;6168834;23;20056;-78
2023/08/24 00:08:21;;;;;;;10.73;5.57;;;;;;;19.28;82.60;101006.34;6167960;23;20078;-81
2023/08/24 00:10:51;;;;;;;6.65;5.10;;;;;;;19.27;82.76;101002.06;6171334;23;20025;-82
2023/08/24 00:13:20;;;;;;;8.68;5.13;;;;;;;19.38;82.66;101005.91;6172644;23;20033;-84
2023/08/24 00:15:49;;;;;;;7.85;5.22;;;;;;;19.36;82.90;101000.84;6172201;23;20049;-81
2023/08/24 00:18:18;;;;;;;15.52;5.15;;;;;;;19.31;83.41;101013.88;6172381;23;20037;-82
2023/08/24 00:20:46;;;;;;;7.65;5.18;;;;;;;19.31;83.42;101003.28;6172011;23;20398;-82
2023/08/24 00:23:14;;;;;;;9.77;5.40;;;;;;;19.30;83.52;101008.78;6172374;23;20025;-82
2023/08/24 00:25:41;;;;;;;8.18;5.13;;;;;;;19.27;83.74;101007.34;6176316;23;20039;-84
2023/08/24 00:28:07;;;;;;;9.82;5.75;;;;;;;19.27;83.72;101002.06;6171832;23;20101;-84
2023/08/24 00:30:34;;;;;;;7.72;5.03;;;;;;;19.20;83.34;100998.56;6162890;23;20021;-83
2023/08/24 00:33:04;;;;;;;9.00;5.30;;;;;;;19.20;83.11;100993.28;6161693;23;20057;-82
2023/08/24 00:35:33;;;;;;;10.23;5.63;;;;;;;19.17;82.40;100986.53;6162191;23;20025;-85
2023/08/24 00:38:01;;;;;;;9.10;5.18;;;;;;;19.16;82.11;100989.38;6161075;23;20021;-82
2023/08/24 00:40:27;;;;;;;6.95;5.57;;;;;;;19.13;81.23;100971.22;6161995;23;20038;-83
2023/08/24 00:42:54;;;;;;;7.63;5.05;;;;;;;19.16;80.64;100974.28;6161874;23;20025;-84
2023/08/24 00:45:24;;;;;;;7.68;5.50;;;;;;;19.26;80.69;100978.38;6160876;23;20048;-82
2023/08/24 00:47:51;;;;;;;8.55;5.57;;;;;;;19.25;80.69;100969.59;6161706;23;20022;-83
2023/08/24 00:50:19;;;;;;;7.05;5.50;;;;;;;19.22;80.35;100964.69;6160943;23;20083;-84
2023/08/24 00:52:48;;;;;;;8.82;5.38;;;;;;;19.05;80.77;100969.59;6159666;23;20502;-82
2023/08/24 00:55:17;;;;;;;11.65;5.88;;;;;;;18.98;81.13;100970.59;6158050;23;20030;-83
2023/08/24 00:57:44;;;;;;;10.32;5.53;;;;;;;18.93;81.54;100970.38;6159001;23;20049;-81
2023/08/24 01:00:11;;;;;;;11.77;6.03;;;;;;;18.88;82.10;100971.00;6158982;23;20017;-82
2023/08/24 01:02:38;;;;;;;9.18;6.05;;;;;;;18.82;82.91;100974.47;6160130;23;20435;-82
2023/08/24 01:05:06;;;;;;;7.43;5.30;;;;;;;18.79;83.69;100972.22;6161124;23;20048;-82
2023/08/24 01:07:34;;;;;;;9.50;6.00;;;;;;;18.64;84.38;100979.53;6160771;23;20036;-81
2023/08/24 01:10:02;;;;;;;8.32;5.80;;;;;;;18.60;85.05;100983.56;6161271;23;20022;-82
2023/08/24 01:12:40;;;;;;;8.77;5.75;;;;;;;18.60;84.82;100984.41;6163784;23;20035;-79
2023/08/24 01:15:14;;;;;;;8.32;5.60;;;;;;;18.68;84.88;100983.41;6165033;23;20026;-81
2023/08/24 01:17:47;;;;;;;9.98;5.90;;;;;;;18.61;84.81;100983.38;6163044;23;20045;-82
2023/08/24 01:20:16;;;;;;;9.45;6.10;;;;;;;18.62;84.75;100978.91;6160537;23;20056;-85
2023/08/24 01:22:52;;;;;;;8.25;5.85;;;;;;;18.63;85.08;100978.69;6160353;23;20036;-79
2023/08/24 01:25:33;;;;;;;10.43;6.43;;;;;;;18.71;85.43;100997.06;6160209;23;20489;-81
2023/08/24 01:28:02;;;;;;;9.57;6.03;;;;;;;18.71;86.01;100993.59;6162342;23;20052;-83
2023/08/24 01:30:30;;;;;;;12.20;6.55;;;;;;;18.71;86.46;100983.81;6162895;23;20022;-80
2023/08/24 01:32:57;;;;;;;9.23;6.00;;;;;;;18.71;86.88;100989.13;6161651;23;20033;-80
2023/08/24 01:35:24;;;;;;;8.00;5.75;;;;;;;18.61;87.28;100993.16;6161405;23;20462;-84
2023/08/24 01:37:50;;;;;;;11.13;6.03;;;;;;;18.64;87.31;100995.41;6163023;23;20053;-82
2023/08/24 01:40:24;;;;;;;10.07;6.13;;;;;;;18.58;87.90;100983.75;6162627;23;20404;-81
2023/08/24 01:42:55;;;;;;;7.57;5.88;;;;;;;18.53;88.32;100980.88;6161325;23;20021;-82
2023/08/24 01:45:28;;;;;;;7.65;6.15;;;;;;;18.52;88.52;100971.28;6160392;23;20057;-81
2023/08/24 01:47:56;;;;;;;9.40;6.18;;;;;;;18.48;89.02;100967.41;6161755;23;20157;-79
2023/08/24 01:50:24;;;;;;;11.18;6.47;;;;;;;18.49;88.88;100958.44;6161410;23;20056;-83
2023/08/24 01:52:51;;;;;;;13.10;6.72;;;;;;;18.39;89.75;100968.63;6162783;23;20049;-84
2023/08/24 01:55:21;;;;;;;11.07;6.25;;;;;;;18.48;89.77;100973.53;6163722;23;20057;-82
2023/08/24 01:57:48;;;;;;;11.15;6.90;;;;;;;18.50;89.97;100966.19;6168012;23;20061;-83
2023/08/24 02:00:15;;;;;;;9.65;6.40;;;;;;;18.44;90.13;100948.44;6164041;23;20022;-80
2023/08/24 02:02:45;;;;;;;14.45;6.93;;;;;;;18.34;90.72;100944.56;6160336;23;20056;-83
2023/08/24 02:05:12;;;;;;;9.82;7.00;;;;;;;18.23;91.67;100952.06;6161785;23;20025;-82
2023/08/24 02:07:40;;;;;;;10.30;6.70;;;;;;;18.18;92.05;100943.88;6163081;23;20080;-82
2023/08/24 02:10:07;;;;;;;13.63;7.68;;;;;;;18.33;91.98;100940.28;6167233;23;20056;-84
2023/08/24 02:12:33;;;;;;;11.05;7.03;;;;;;;18.33;91.91;100937.63;6163411;23;20057;-84
2023/08/24 02:15:00;;;;;;;11.77;7.63;;;;;;;18.30;92.21;100944.13;6163072;23;20025;-82
2023/08/24 02:17:27;;;;;;;12.85;7.53;;;;;;;18.34;91.75;100939.25;6164146;23;20060;-83
2023/08/24 02:19:55;;;;;;;13.02;7.40;;;;;;;18.35;92.11;100940.91;6164163;23;20029;-83
2023/08/24 02:22:22;;;;;;;9.52;7.38;;;;;;;18.31;92.54;100940.47;6168748;23;20033;-84
2023/08/24 02:24:49;;;;;;;11.18;7.47;;;;;;;18.33;92.79;100938.44;6166682;23;20049;-85
2023/08/24 02:27:15;;;;;;;13.38;7.18;;;;;;;18.38;92.92;100936.03;6169022;23;20032;-82
2023/08/24 02:29:42;;;;;;;13.07;7.18;;;;;;;18.34;93.29;100934.78;6169245;23;20025;-83
2023/08/24 02:32:11;;;;;;;13.50;7.40;;;;;;;18.37;93.78;100944.16;6163829;23;20025;-83
2023/08/24 02:34:38;;;;;;;9.02;7.07;;;;;;;18.38;93.85;100940.50;6161896;23;20060;-82
2023/08/24 02:37:06;;;;;;;12.63;6.93;;;;;;;18.43;93.79;100948.66;6160038;23;20413;-82
2023/08/24 02:39:33;;;;;;;12.70;7.20;;;;;;;18.55;93.94;100953.16;6161498;23;20045;-83
2023/08/24 02:41:59;;;;;;;9.77;7.50;;;;;;;18.59;94.08;100950.94;6159917;23;20033;-80
2023/08/24 02:44:27;;;;;;;14.27;7.40;;;;;;;18.59;94.23;100948.28;6162089;23;20383;-84
2023/08/24 02:46:55;;;;;;;12.48;7.30;;;;;;;18.61;94.98;100956.06;6157244;23;20049;-83
2023/08/24 02:49:21;;;;;;;15.63;7.50;;;;;;;18.72;95.36;100963.44;6158939;23;20021;-81
2023/08/24 02:51:48;;;;;;;12.95;7.85;;;;;;;18.82;95.47;100958.56;6158922;23;20057;-80
2023/08/24 02:54:16;;;;;;;9.73;7.10;;;;;;;18.87;95.49;100966.72;6165492;23;20025;-78
2023/08/24 02:56:42;;;;;;;10.77;7.28;;;;;;;18.96;95.42;100964.69;6170339;23;20013;-84
2023/08/24 02:59:09;;;;;;;15.07;7.43;;;;;;;18.96;95.15;100959.38;6168534;23;20025;-82
2023/08/24 03:01:38;;;;;;;10.30;7.18;;;;;;;19.01;95.34;100948.97;6161874;23;20050;-82
2023/08/24 03:04:05;;;;;;;14.07;7.55;;;;;;;19.01;95.21;100948.97;6161332;23;20406;-83
2023/08/24 03:06:34;;;;;;;14.00;7.93;;;;;;;18.99;95.56;100953.66;6161704;23;20032;-82
2023/08/24 03:09:04;;;;;;;12.88;7.70;;;;;;;19.06;95.89;100963.25;6158328;23;20021;-80
2023/08/24 03:11:32;;;;;;;11.10;7.38;;;;;;;19.12;96.02;100972.25;6160423;23;20049;-79
2023/08/24 03:14:22;;;;;;;11.13;7.50;;;;;;;19.13;96.22;100965.91;6162380;23;20033;-82
2023/08/24 03:17:04;;;;;;;11.82;7.82;;;;;;;19.07;96.20;100951.63;6159086;23;20025;-82
2023/08/24 03:23:30;;;;;;;;;;;;;;;;;;;;;
2023/08/24 03:26:15;;;;;;;12.68;7.13;;;;;;;19.10;95.75;100930.00;6070634;23;20019;-82
2023/08/24 03:32:02;;;;;;;12.93;7.47;;;;;;;19.14;95.16;100935.72;6158661;23;20466;-82
2023/08/24 03:34:46;;;;;;;15.23;7.68;;;;;;;19.11;95.35;100946.75;6160767;23;20496;-81
2023/08/24 03:37:25;;;;;;;11.52;7.25;;;;;;;19.25;94.96;100988.16;6159580;23;20021;-83
2023/08/24 03:40:07;;;;;;;12.73;8.18;;;;;;;19.12;94.59;100980.19;6160614;23;20411;-82
2023/08/24 03:42:55;;;;;;;11.75;7.57;;;;;;;19.03;94.68;101002.63;6162371;23;20021;-81
2023/08/24 03:49:31;;;;;;;9.73;7.00;;;;;;;18.90;94.69;100988.31;6098910;23;20022;-80
2023/08/24 04:23:37;;;;;;;16.38;8.18;;;;;;;18.61;100.00;100978.09;6156742;23;20021;-81
2023/08/24 04:26:11;;;;;;;13.85;8.32;;;;;;;18.54;100.00;100978.03;6162715;23;20025;-82
2023/08/24 04:28:50;;;;;;;11.85;8.32;;;;;;;18.73;100.00;100986.28;6164647;23;20025;-81
2023/08/24 04:31:24;;;;;;;12.20;8.57;;;;;;;18.79;100.00;100981.00;6163384;23;20552;-80
2023/08/24 04:33:51;;;;;;;14.43;8.10;;;;;;;18.82;100.00;100980.59;6159751;23;20035;-79
2023/08/24 04:36:55;;;;;;;;;;;;;;;;;;;;;
2023/08/24 04:39:39;;;;;;;11.73;8.82;;;;;;;18.42;100.00;100961.09;6155772;23;20029;-83
2023/08/24 04:42:07;;;;;;;11.38;9.00;;;;;;;18.28;100.00;100945.34;6168976;23;20021;-81
2023/08/24 04:44:34;;;;;;;17.70;9.13;;;;;;;18.08;100.00;100914.31;6167161;23;20108;-81
2023/08/24 04:47:05;;;;;;;15.90;9.80;;;;;;;18.25;100.00;100925.38;6169367;23;20022;-80
2023/08/24 04:49:32;;;;;;;13.25;9.93;;;;;;;18.18;100.00;100914.75;6168946;23;20036;-80
2023/08/24 04:52:03;;;;;;;12.25;9.90;;;;;;;18.11;100.00;100927.16;6164371;23;20069;-81
2023/08/24 04:54:34;;;;;;;17.80;10.80;;;;;;;18.21;100.00;100922.31;6166649;23;20036;-81
2023/08/24 04:57:01;;;;;;;17.63;10.25;;;;;;;18.28;100.00;100929.47;6167698;23;20025;-81
2023/08/24 05:04:00;;;;;;;16.25;11.45;;;;;;;18.30;100.00;100948.63;6048289;23;20031;-84
2023/08/24 05:06:26;;;;;;;16.30;11.30;;;;;;;18.37;100.00;100944.16;6113498;23;20053;-80
2023/08/24 05:08:55;;;;;;;16.90;11.48;;;;;;;18.38;100.00;100951.09;6169326;23;20256;-80
2023/08/24 05:11:28;;;;;;;18.08;10.95;;;;;;;18.39;100.00;100942.13;6167339;23;20048;-81
2023/08/24 05:13:55;;;;;;;18.23;11.32;;;;;;;18.38;100.00;100933.38;6165132;23;20032;-80
2023/08/24 05:16:22;;;;;;;14.82;11.80;;;;;;;18.41;100.00;100929.50;6166038;23;20398;-80
2023/08/24 05:18:52;;;;;;;19.45;12.55;;;;;;;18.41;100.00;100924.22;6172263;23;20474;-79
2023/08/24 05:21:18;;;;;;;16.13;11.77;;;;;;;18.44;100.00;100940.50;6171479;23;20026;-80
2023/08/24 05:23:45;;;;;;;22.50;12.68;;;;;;;18.44;100.00;100939.69;6170987;23;20072;-79
2023/08/24 05:26:12;;;;;;;17.20;13.00;;;;;;;18.44;100.00;100924.59;6164529;23;20026;-80
2023/08/24 05:28:40;;;;;;;18.77;14.07;;;;;;;18.40;100.00;100923.38;6164534;23;20025;-81
2023/08/24 05:31:06;;;;;;;18.35;15.13;;;;;;;18.49;100.00;100924.81;6166248;23;20018;-80
2023/08/24 05:33:33;;;;;;;20.75;14.88;;;;;;;18.38;100.00;100908.72;6169473;23;20045;-81
2023/08/24 05:36:00;;;;;;;16.92;14.57;;;;;;;18.51;100.00;100929.91;6180887;23;20073;-80
2023/08/24 05:38:27;;;;;;;21.00;15.02;;;;;;;18.57;100.00;100937.06;6181946;23;20018;-81
2023/08/24 05:40:54;;;;;;;17.67;14.40;;;;;;;18.56;100.00;100938.09;6174720;23;20025;-79
2023/08/24 05:43:20;;;;;;;18.80;13.45;;;;;;;18.60;100.00;100925.25;6170595;23;20025;-81
2023/08/24 05:45:49;;;;;;;19.92;13.15;;;;;;;18.59;100.00;100924.44;6165341;23;20069;-81
2023/08/24 05:48:19;;;;;;;15.95;13.15;;;;;;;18.57;100.00;100929.94;6167598;23;20056;-81
2023/08/24 05:50:47;;;;;;;14.32;12.18;;;;;;;18.46;100.00;100885.47;6167533;23;20053;-81
2023/08/24 05:53:14;;;;;;;16.65;12.00;;;;;;;18.72;100.00;100918.38;6165059;23;20025;-80
2023/08/24 05:55:40;;;;;;;14.85;11.77;;;;;;;18.66;100.00;100912.03;6164134;23;20076;-82
2023/08/24 05:58:07;;;;;;;14.57;12.43;;;;;;;18.70;100.00;100897.38;6167019;23;20025;-80
2023/08/24 06:00:34;;;;;;;14.23;11.63;;;;;;;18.74;100.00;100898.59;6167301;23;20018;-81
2023/08/24 06:03:03;;;;;;;18.30;12.15;;;;;;;18.82;100.00;100890.44;6162653;23;20049;-81
2023/08/24 06:05:30;;;;;;;15.90;11.13;;;;;;;18.94;100.00;100892.47;6161886;23;20064;-80
2023/08/24 06:07:57;;;;;;;13.40;11.15;;;;;;;18.99;100.00;100882.06;6162116;23;20021;-78
2023/08/24 06:10:25;;;;;;;16.70;10.95;;;;;;;18.98;100.00;100888.38;6159534;23;20029;-80
2023/08/24 06:12:55;;;;;;;15.48;11.50;;;;;;;19.12;100.00;100887.38;6155601;23;20021;-80
2023/08/24 06:15:27;;;;;;;15.65;11.30;;;;;;;19.03;100.00;100872.69;6158821;23;20470;-80
2023/08/24 06:17:56;;;;;;;15.88;10.98;;;;;;;19.19;100.00;100857.16;6163335;23;20049;-79
2023/08/24 06:20:33;;;;;;;13.07;10.02;;;;;;;19.82;100.00;100860.06;6162289;23;20028;-79
2023/08/24 06:23:00;;;;;;;12.13;9.55;;;;;;;19.75;100.00;100853.97;6160502;23;20041;-79
2023/08/24 06:25:27;;;;;;;15.75;10.57;;;;;;;19.66;100.00;100846.44;6159465;23;20025;-79
2023/08/24 06:27:58;;;;;;;12.25;9.48;;;;;;;20.16;100.00;100845.56;6160077;23;20032;-80
2023/08/24 06:34:25;;;;;;;14.93;10.23;;;;;;;21.98;93.92;100801.63;6148176;23;20029;-81
2023/08/24 06:37:44;;;;;;;;;;;;;;;;;;;;;
2023/08/24 06:40:33;;;;;;;18.63;15.85;;;;;;;22.47;88.84;100797.00;6126878;23;20021;-80
2023/08/24 06:43:44;;;;;;;25.17;19.88;;;;;;;22.40;87.87;100756.31;6135905;23;20033;-80
2023/08/24 06:49:39;;;;;;;28.88;22.30;;;;;;;22.41;88.13;100771.28;6109766;23;20040;-80
2023/08/24 06:52:49;;;;;;;23.60;19.88;;;;;;;23.09;85.62;100752.84;6163130;23;20017;-80
2023/08/24 06:55:41;;;;;;;19.45;16.48;;;;;;;23.72;84.30;100764.47;6163385;23;20036;-81
2023/08/24 07:17:56;;;;;;;11.50;7.72;;;;;;;24.61;76.49;100711.94;5980988;24;20150;-82
2023/08/24 07:24:11;;;;;;;9.55;6.70;;;;;;;25.18;75.21;100700.91;6138880;23;20040;-80
2023/08/24 07:54:51;;;;;;;8.23;6.30;;;;;;;25.56;69.92;100701.81;5865834;24;20045;-82
2023/08/24 08:01:01;;;;;;;10.57;6.38;;;;;;;25.96;70.22;100718.31;6041866;23;20031;-82
2023/08/24 08:10:27;;;;;;;13.07;6.63;;;;;;;27.34;67.24;100693.06;5975925;24;20075;-83
2023/08/24 08:16:03;;;;;;;8.75;6.22;;;;;;;25.98;70.22;100692.06;6162585;23;20032;-83
2023/08/24 08:18:46;;;;;;;11.27;6.10;;;;;;;26.63;69.50;100709.69;6163028;23;20078;-83
2023/08/24 09:32:25;;;;;;;7.90;4.70;;;;;;;27.38;62.41;100549.88;6167817;23;20009;-83
2023/08/24 09:43:23;;;;;;;;;;;;;;;;;;;;;
2023/08/24 12:17:50;;;;;;;8.88;4.80;;;;;;;28.55;68.62;100597.22;5646844;25;20029;-80
2023/08/24 13:02:59;;;;;;;12.40;6.50;;;;;;;25.95;88.73;100504.09;5826773;23;20106;-80
2023/08/24 13:05:26;;;;;;;11.93;6.13;;;;;;;25.99;87.94;100494.47;6042122;23;20019;-81
2023/08/24 13:07:53;;;;;;;12.75;6.18;;;;;;;26.13;88.33;100509.00;6041492;23;20031;-81
2023/08/24 13:10:20;;;;;;;11.75;6.07;;;;;;;26.12;86.90;100494.78;6043368;23;20034;-80
2023/08/24 13:12:47;;;;;;;12.07;7.13;;;;;;;25.93;86.50;100461.47;6040161;23;20346;-78
2023/08/24 13:15:15;;;;;;;10.95;6.35;;;;;;;25.49;87.58;100452.91;6037336;23;20418;-79
2023/08/24 13:17:41;;;;;;;11.93;5.93;;;;;;;25.46;89.00;100464.94;6041273;23;20041;-80
2023/08/24 13:20:12;;;;;;;13.00;6.43;;;;;;;25.28;89.13;100457.31;6041891;23;20539;-81
2023/08/24 13:25:33;;;;;;;8.98;5.65;;;;;;;25.19;88.90;100496.34;5989014;24;20031;-80
2023/08/24 13:28:03;;;;;;;13.27;6.63;;;;;;;25.13;89.79;100492.00;5988612;23;20028;-81
2023/08/24 13:30:37;;;;;;;12.35;6.68;;;;;;;25.28;88.90;100504.72;6021659;23;20512;-81
2023/08/24 13:33:12;;;;;;;9.02;6.07;;;;;;;25.32;89.45;100517.34;6046586;23;20468;-80
2023/08/24 13:35:43;;;;;;;8.85;5.68;;;;;;;25.40;89.49;100498.13;6049735;23;20019;-81
2023/08/24 13:38:10;;;;;;;13.68;5.50;;;;;;;25.55;88.97;100500.06;6053235;23;20102;-81
2023/08/24 13:40:39;;;;;;;7.82;5.60;;;;;;;25.69;87.34;100476.34;6051959;23;20075;-81
2023/08/24 13:43:24;;;;;;;10.60;5.45;;;;;;;25.91;85.93;100503.00;6052041;23;20062;-81
2023/08/24 13:52:33;;;;;;;8.40;5.38;;;;;;;25.90;85.38;100470.03;5960756;24;20036;-79
2023/08/24 13:55:03;;;;;;;11.68;5.57;;;;;;;25.83;84.20;100465.97;6044484;23;20058;-81
2023/08/24 13:57:38;;;;;;;7.72;5.00;;;;;;;25.78;84.21;100464.06;6050046;23;20027;-78
2023/08/24 14:00:11;;;;;;;8.85;5.25;;;;;;;25.95;84.60;100471.94;6041813;23;20580;-78
2023/08/24 14:02:48;;;;;;;12.65;5.10;;;;;;;25.77;83.44;100463.25;6045023;23;20420;-79
2023/08/24 14:05:24;;;;;;;10.15;5.13;;;;;;;25.58;84.58;100474.63;6039508;23;20023;-78
2023/08/24 14:11:28;;;;;;;6.95;5.32;;;;;;;25.37;86.97;100530.78;6029908;23;20026;-78
2023/08/24 14:14:24;;;;;;;11.57;5.20;;;;;;;25.13;87.26;100502.69;6124966;23;20340;-78
2023/08/24 14:17:01;;;;;;;10.30;5.20;;;;;;;25.17;87.79;100514.53;6128534;23;20053;-79
2023/08/24 14:19:43;;;;;;;9.73;5.28;;;;;;;24.86;87.86;100528.66;6127096;23;20037;-78
2023/08/24 14:25:11;;;;;;;11.77;5.78;;;;;;;24.83;89.67;100562.09;6126457;23;20029;-77
2023/08/24 14:27:57;;;;;;;6.65;5.35;;;;;;;24.73;89.76;100546.72;6126617;23;20133;-78
2023/08/24 14:30:31;;;;;;;7.75;5.35;;;;;;;24.71;89.16;100543.50;6128578;23;20022;-78
2023/08/24 14:33:09;;;;;;;8.57;5.15;;;;;;;24.67;88.68;100563.78;6126609;23;20479;-78
2023/08/24 14:35:39;;;;;;;7.40;5.00;;;;;;;24.64;88.17;100560.81;6127662;23;20018;-78
2023/08/24 14:38:08;;;;;;;8.95;4.70;;;;;;;24.53;89.08;100570.59;6130780;23;20142;-78
2023/08/24 14:40:56;;;;;;;10.13;5.10;;;;;;;24.26;89.31;100551.00;6136465;23;20020;-78
2023/08/24 14:44:21;;;;;;;6.90;4.63;;;;;;;24.02;89.92;100556.53;6144710;23;20084;-78
2023/08/24 14:46:56;;;;;;;9.35;4.75;;;;;;;23.92;89.70;100540.38;6134019;23;20025;-78
2023/08/24 14:49:44;;;;;;;8.27;4.72;;;;;;;23.93;90.21;100563.38;6128773;23;20036;-76
2023/08/24 14:52:22;;;;;;;8.90;4.82;;;;;;;23.85;90.88;100577.13;6127278;23;20058;-78
2023/08/24 14:54:57;;;;;;;13.88;5.90;;;;;;;23.80;91.85;100585.88;6127809;23;20466;-78
2023/08/24 14:57:52;;;;;;;9.18;5.07;;;;;;;23.62;93.58;100582.66;6127092;23;20014;-78
2023/08/24 15:00:25;;;;;;;8.77;4.97;;;;;;;23.39;94.88;100565.69;6126006;23;20030;-77
2023/08/24 15:06:11;;;;;;;;;;;;;;;;;;;;;
2023/08/24 15:08:42;;;;;;;12.27;5.15;;;;;;;22.97;98.38;100527.88;6126585;23;20022;-77
2023/08/24 15:11:09;;;;;;;9.75;4.82;;;;;;;22.99;98.27;100546.31;6125373;23;20104;-77
2023/08/24 15:13:44;;;;;;;6.20;4.68;;;;;;;22.88;99.08;100517.84;6125978;23;20101;-77
2023/08/24 15:16:12;;;;;;;9.10;4.90;;;;;;;23.01;100.00;100533.56;6127185;23;20018;-77
2023/08/24 15:18:42;;;;;;;8.80;4.90;;;;;;;22.96;100.00;100530.78;6126909;23;20022;-78
2023/08/24 15:21:09;;;;;;;8.57;4.70;;;;;;;22.68;100.00;100540.41;6126347;23;20026;-77
2023/08/24 15:23:36;;;;;;;11.38;5.30;;;;;;;22.57;100.00;100559.91;6127658;23;20360;-77
2023/08/24 15:26:09;;;;;;;7.00;4.72;;;;;;;22.62;100.00;100568.03;6126637;23;20084;-78
2023/08/24 15:28:59;;;;;;;6.15;4.07;;;;;;;22.56;100.00;100594.81;6126894;23;20069;-77
2023/08/24 15:31:29;;;;;;;8.93;4.82;;;;;;;22.26;100.00;100563.78;6127921;23;20525;-77
2023/08/24 15:34:20;;;;;;;9.70;5.07;;;;;;;22.19;100.00;100579.13;6128971;23;20049;-79
2023/08/24 15:36:49;;;;;;;8.52;4.45;;;;;;;22.18;100.00;100573.00;6127965;23;20077;-78
2023/08/24 15:39:18;;;;;;;11.05;4.75;;;;;;;22.12;100.00;100579.25;6127007;23;20024;-77
2023/08/24 15:41:50;;;;;;;8.13;4.50;;;;;;;22.24;100.00;100565.06;6127231;23;20026;-77
2023/08/24 15:44:41;;;;;;;9.07;4.93;;;;;;;22.10;100.00;100543.22;6126325;23;20021;-78
2023/08/24 15:49:53;;;;;;;9.95;4.95;;;;;;;22.23;100.00;100521.63;6122532;23;20026;-77
2023/08/24 15:52:22;;;;;;;9.55;4.13;;;;;;;22.11;100.00;100495.00;6125846;23;20109;-77
2023/08/24 15:54:51;;;;;;;7.75;3.95;;;;;;;22.17;100.00;100488.75;6125396;23;20129;-77
2023/08/24 15:57:22;;;;;;;5.93;3.60;;;;;;;22.36;100.00;100492.03;6125779;23;20497;-77
2023/08/24 15:59:52;;;;;;;8.95;4.05;;;;;;;22.11;100.00;100475.56;6125720;23;20022;-77
2023/08/24 16:02:23;;;;;;;7.88;3.33;;;;;;;22.28;100.00;100492.41;6126208;23;20029;-77
2023/08/24 16:04:56;;;;;;;8.18;3.70;;;;;;;22.18;100.00;100469.03;6125780;23;20026;-77
2023/08/24 16:07:22;;;;;;;;;;;;;;;22.11;100.00;100464.91;6125641;23;20475;-78
2023/08/24 16:09:52;;;;;;;8.20;4.07;;;;;;;22.02;100.00;100460.97;6125046;23;20369;-77
2023/08/24 16:12:18;;;;;;;6.20;3.55;;;;;;;21.95;100.00;100444.28;6125575;23;20038;-78
2023/08/24 16:17:37;;;;;;;6.78;3.28;;;;;;;21.92;100.00;100426.91;6081397;23;20104;-77
2023/08/24 16:20:07;;;;;;;10.20;3.08;;;;;;;21.71;100.00;100414.22;6126119;23;20025;-77
2023/08/24 16:22:36;;;;;;;7.50;3.40;;;;;;;21.79;100.00;100411.97;6126933;23;20022;-78
2023/08/24 16:25:05;;;;;;;6.28;3.22;;;;;;;22.12;100.00;100427.34;6125749;23;20033;-76
2023/08/24 16:27:33;;;;;;;12.00;3.55;;;;;;;22.14;100.00;100401.28;6124809;23;20487;-76
2023/08/24 16:30:00;;;;;;;6.78;3.50;;;;;;;22.19;100.00;100381.91;6125015;23;20109;-76
2023/08/24 16:32:27;;;;;;;8.48;3.92;;;;;;;22.14;100.00;100385.28;6125041;23;20021;-77
2023/08/24 16:34:55;;;;;;;10.75;4.30;;;;;;;21.98;100.00;100375.34;6125926;23;20053;-78
2023/08/24 16:37:22;;;;;;;9.43;4.13;;;;;;;21.94;100.00;100379.53;6126266;23;20029;-77
2023/08/24 16:39:49;;;;;;;8.73;3.85;;;;;;;21.94;100.00;100379.53;6125452;23;20029;-77
2023/08/24 16:42:19;;;;;;;7.85;3.75;;;;;;;22.11;100.00;100384.94;6125337;23;20470;-77
2023/08/24 16:44:47;;;;;;;7.28;4.18;;;;;;;22.14;100.00;100357.81;6125658;23;20040;-77
2023/08/24 16:47:14;;;;;;;7.88;3.85;;;;;;;22.22;100.00;100348.63;6129004;23;20061;-77
2023/08/24 16:49:40;;;;;;;8.43;4.05;;;;;;;22.26;100.00;100328.44;6126314;23;20050;-77
2023/08/24 16:52:08;;;;;;;6.75;3.78;;;;;;;22.16;100.00;100316.56;6125258;23;20076;-78
2023/08/24 16:54:35;;;;;;;5.00;3.25;;;;;;;22.18;100.00;100295.81;6126195;23;20021;-77
2023/08/24 16:57:02;;;;;;;7.40;4.40;;;;;;;22.14;100.00;100277.88;6127240;23;20022;-78
2023/08/24 16:59:29;;;;;;;8.18;3.85;;;;;;;22.07;100.00;100261.25;6130291;23;20035;-78
2023/08/24 17:01:56;;;;;;;6.55;3.97;;;;;;;22.03;100.00;100258.25;6135829;23;20077;-79
2023/08/24 17:04:22;;;;;;;7.35;3.75;;;;;;;21.98;100.00;100271.44;6164690;23;20021;-81
2023/08/24 17:06:49;;;;;;;9.05;4.40;;;;;;;21.83;100.00;100284.47;6166492;23;20026;-81
2023/08/24 17:09:17;;;;;;;7.93;4.07;;;;;;;21.74;100.00;100315.22;6166903;23;20026;-81
2023/08/24 17:11:44;;;;;;;7.93;5.05;;;;;;;21.82;100.00;100320.16;6164622;23;20026;-80
2023/08/24 17:14:10;;;;;;;6.95;3.92;;;;;;;21.95;100.00;100311.06;6163625;23;20021;-80
2023/08/24 17:16:37;;;;;;;7.75;4.15;;;;;;;21.96;100.00;100305.50;6160613;23;20032;-81
2023/08/24 17:19:04;;;;;;;6.28;4.10;;;;;;;21.91;100.00;100315.25;6162622;23;20363;-81
2023/08/24 17:21:31;;;;;;;11.00;4.80;;;;;;;21.91;100.00;100318.72;6159671;23;20057;-81
2023/08/24 17:23:57;;;;;;;8.15;4.60;;;;;;;21.98;100.00;100330.06;6161686;23;20053;-80
2023/08/24 17:26:26;;;;;;;10.10;4.82;;;;;;;21.79;100.00;100325.94;6166223;23;20021;-82
2023/08/24 17:28:52;;;;;;;9.93;4.38;;;;;;;21.78;100.00;100319.00;6164360;23;20025;-81
2023/08/24 17:31:19;;;;;;;8.82;3.92;;;;;;;21.87;100.00;100328.22;6159320;23;20450;-79
2023/08/24 17:33:45;;;;;;;9.30;4.32;;;;;;;22.04;100.00;100331.81;6159643;23;20053;-79
2023/08/24 17:36:12;;;;;;;6.78;3.90;;;;;;;21.94;100.00;100314.78;6158494;23;20021;-80
2023/08/24 17:38:39;;;;;;;9.45;3.90;;;;;;;22.00;100.00;100311.97;6159535;23;20123;-81
2023/08/24 17:41:07;;;;;;;9.77;4.63;;;;;;;21.92;100.00;100315.00;6159610;23;20093;-81
2023/08/24 17:43:37;;;;;;;4.28;3.70;;;;;;;21.94;100.00;100315.59;6160433;23;20017;-81
2023/08/24 17:46:03;;;;;;;6.78;4.82;;;;;;;21.66;100.00;100312.94;6160633;23;20028;-81
2023/08/24 17:48:31;;;;;;;6.97;4.10;;;;;;;21.73;100.00;100324.25;6158193;23;20053;-81
2023/08/24 17:51:02;;;;;;;5.40;3.63;;;;;;;21.89;100.00;100334.13;6158961;23;20049;-81
2023/08/24 17:53:29;;;;;;;7.45;4.18;;;;;;;21.94;100.00;100328.91;6162682;23;20021;-81
2023/08/24 17:55:57;;;;;;;7.13;4.10;;;;;;;22.00;100.00;100335.94;6166110;23;20025;-82
2023/08/24 17:58:25;;;;;;;8.27;4.53;;;;;;;21.86;100.00;100335.41;6164466;23;20025;-81
2023/08/24 18:00:55;;;;;;;6.50;4.35;;;;;;;21.79;100.00;100340.06;6160618;23;20067;-80
2023/08/24 18:03:22;;;;;;;8.70;4.32;;;;;;;21.92;100.00;100328.34;6163152;23;20365;-81
2023/08/24 18:05:49;;;;;;;6.68;4.50;;;;;;;22.17;100.00;100333.38;6159637;23;20466;-81
2023/08/24 18:08:16;;;;;;;8.27;4.50;;;;;;;22.14;100.00;100332.00;6161364;23;20032;-82
2023/08/24 18:10:42;;;;;;;9.88;4.32;;;;;;;22.15;100.00;100327.47;6162474;23;20076;-81
2023/08/24 18:13:09;;;;;;;9.43;4.18;;;;;;;21.92;100.00;100307.03;6161094;23;20052;-80
2023/08/24 18:15:36;;;;;;;8.00;4.25;;;;;;;21.90;100.00;100302.97;6158029;23;20100;-80
2023/08/24 18:18:05;;;;;;;8.27;4.55;;;;;;;21.88;100.00;100321.06;6159359;23;20057;-82
2023/08/24 18:20:33;;;;;;;8.07;4.38;;;;;;;21.92;100.00;100307.03;6159765;23;20052;-82
2023/08/24 18:23:00;;;;;;;11.13;4.57;;;;;;;21.76;100.00;100329.06;6159113;23;20028;-82
2023/08/24 18:25:27;;;;;;;7.90;4.40;;;;;;;21.74;100.00;100320.53;6161968;23;20060;-82
2023/08/24 18:27:54;;;;;;;9.52;4.78;;;;;;;21.71;100.00;100326.34;6160215;23;20025;-82
2023/08/24 18:30:21;;;;;;;9.93;4.88;;;;;;;21.79;100.00;100344.59;6158407;23;20474;-80
2023/08/24 18:32:48;;;;;;;7.15;4.65;;;;;;;21.77;100.00;100325.38;6159806;23;20422;-81
2023/08/24 18:35:16;;;;;;;6.43;4.40;;;;;;;21.67;100.00;100331.34;6156951;23;20025;-78
2023/08/24 18:37:43;;;;;;;9.32;4.68;;;;;;;21.61;100.00;100347.44;6160051;23;20021;-81
2023/08/24 18:40:14;;;;;;;8.75;4.32;;;;;;;21.73;100.00;100343.69;6161148;23;20060;-81